createdAt,value
2018-11-22T12:16:58.788Z,7.50
2018-11-22T12:19:03.538Z,7.60
2018-11-22T12:21:08.355Z,7.60
2018-11-22T12:23:13.104Z,7.60
2018-11-22T12:25:19.463Z,7.50
2018-11-22T12:27:24.294Z,7.50
2018-11-22T12:29:29.063Z,7.70
2018-11-22T12:31:34.193Z,7.70
2018-11-22T12:33:39.076Z,7.60
2018-11-22T12:35:48.804Z,7.60
2018-11-22T12:37:58.636Z,7.60
2018-11-22T12:40:03.809Z,7.60
2018-11-22T12:42:08.490Z,7.70
2018-11-22T12:44:13.238Z,7.70
2018-11-22T12:46:18.189Z,7.70
2018-11-22T12:48:23.071Z,7.70
2018-11-22T12:50:28.285Z,7.60
2018-11-22T12:52:33.017Z,7.60
2018-11-22T12:54:37.728Z,7.70
2018-11-22T12:56:42.552Z,7.70
2018-11-22T12:58:47.441Z,7.60
2018-11-22T13:00:52.320Z,7.60
2018-11-22T13:02:57.058Z,7.60
2018-11-22T13:05:01.826Z,7.60
2018-11-22T13:07:06.725Z,7.60
2018-11-22T13:09:11.746Z,7.60
2018-11-22T13:11:16.649Z,7.60
2018-11-22T13:13:21.470Z,7.60
2018-11-22T13:15:26.199Z,7.60
2018-11-22T13:17:30.969Z,7.50
2018-11-22T13:19:35.779Z,7.50
2018-11-22T13:21:40.661Z,7.60
2018-11-22T13:23:45.463Z,7.60
2018-11-22T13:25:50.215Z,7.50
2018-11-22T13:27:55.041Z,7.50
2018-11-22T13:29:59.890Z,7.50
2018-11-22T13:32:04.666Z,7.60
2018-11-22T13:34:10.608Z,7.60
2018-11-22T13:36:15.597Z,7.60
2018-11-22T13:38:20.764Z,7.70
2018-11-22T13:40:26.166Z,7.60
2018-11-22T13:42:31.390Z,7.70
2018-11-22T13:44:36.417Z,7.70
2018-11-22T13:46:41.242Z,7.50
2018-11-22T13:48:46.232Z,7.60
2018-11-22T13:50:51.078Z,7.50
2018-11-22T13:52:57.884Z,7.50
2018-11-22T13:55:03.419Z,7.40
2018-11-22T13:57:09.021Z,7.50
2018-11-22T13:59:12.782Z,7.50
2018-11-22T14:01:17.583Z,7.60
2018-11-22T14:03:22.369Z,7.50
2018-11-22T14:05:29.524Z,7.50
2018-11-22T14:07:34.291Z,7.50
2018-11-22T14:09:39.766Z,7.40
2018-11-22T14:11:44.646Z,7.40
2018-11-22T14:13:49.514Z,7.40
2018-11-22T14:15:54.276Z,7.40
2018-11-22T14:18:00.484Z,7.40
2018-11-22T14:20:05.937Z,7.40
2018-11-22T14:22:11.175Z,7.40
2018-11-22T14:24:16.793Z,7.30
2018-11-22T14:26:21.740Z,7.30
2018-11-22T14:28:26.549Z,7.30
2018-11-22T14:30:36.548Z,7.20
2018-11-22T14:32:42.470Z,7.30
2018-11-22T14:34:47.391Z,7.30
2018-11-22T14:36:55.066Z,7.50
2018-11-22T14:38:59.849Z,7.60
2018-11-22T14:41:04.671Z,7.60
2018-11-22T14:43:09.723Z,7.50
2018-11-22T14:45:15.560Z,7.60
2018-11-22T14:47:20.475Z,7.60
2018-11-22T14:49:25.301Z,7.70
2018-11-22T14:51:36.702Z,7.70
2018-11-22T14:53:42.091Z,7.60
2018-11-22T14:55:46.921Z,7.60
2018-11-22T14:57:51.684Z,7.60
2018-11-22T14:59:57.410Z,7.60
2018-11-22T15:02:02.289Z,7.50
2018-11-22T15:04:07.083Z,7.50
2018-11-22T15:08:24.254Z,7.40
2018-11-22T15:10:29.425Z,7.40
2018-11-22T15:12:34.216Z,7.40
2018-11-22T15:14:39.409Z,7.40
2018-11-22T15:16:44.259Z,7.30
2018-11-22T15:18:49.023Z,7.30
2018-11-22T15:20:53.886Z,7.20
2018-11-22T15:22:58.837Z,7.20
2018-11-22T15:25:03.740Z,7.10
2018-11-22T15:27:08.820Z,7.10
2018-11-22T15:29:13.928Z,7.00
2018-11-22T15:31:27.325Z,7.00
2018-11-22T15:33:32.846Z,7.00
2018-11-22T15:35:38.020Z,6.90
2018-11-22T15:37:43.841Z,6.90
2018-11-22T15:39:49.050Z,6.80
2018-11-22T15:41:54.088Z,6.80
2018-11-22T15:43:59.209Z,6.70
2018-11-22T15:46:04.124Z,6.70
2018-11-22T15:48:12.303Z,6.70
2018-11-22T15:50:19.233Z,6.70
2018-11-22T15:52:24.447Z,6.80
2018-11-22T15:54:29.803Z,6.70
2018-11-22T15:56:34.923Z,6.60
2018-11-22T15:58:40.402Z,6.60
2018-11-22T16:00:45.411Z,6.50
2018-11-22T16:02:50.978Z,6.50
2018-11-22T16:04:56.306Z,6.40
2018-11-22T16:07:01.550Z,6.40
2018-11-22T16:09:10.024Z,6.30
2018-11-22T16:11:15.129Z,6.20
2018-11-22T16:13:19.969Z,6.10
2018-11-22T16:15:31.602Z,6.10
2018-11-22T16:17:36.465Z,6.10
2018-11-22T16:19:41.396Z,6.00
2018-11-22T16:21:46.257Z,5.90
2018-11-22T16:23:51.156Z,5.90
2018-11-22T16:25:56.499Z,5.80
2018-11-22T16:28:01.394Z,5.70
2018-11-22T16:30:11.255Z,5.70
2018-11-22T16:34:28.552Z,5.60
2018-11-22T16:36:33.744Z,5.50
2018-11-22T16:38:38.966Z,5.50
2018-11-22T16:40:43.734Z,5.50
2018-11-22T16:42:51.770Z,5.40
2018-11-22T16:44:57.228Z,5.30
2018-11-22T16:47:02.115Z,5.30
2018-11-22T16:49:07.145Z,5.30
2018-11-22T16:51:13.171Z,5.30
2018-11-22T16:53:18.826Z,5.20
2018-11-22T16:55:24.388Z,5.20
2018-11-22T16:57:29.291Z,5.20
2018-11-22T16:59:34.551Z,5.20
2018-11-22T17:01:39.835Z,5.10
2018-11-22T17:03:44.810Z,5.10
2018-11-22T17:05:49.951Z,5.00
2018-11-22T17:07:54.953Z,5.00
2018-11-22T17:10:00.362Z,5.00
2018-11-22T17:12:05.516Z,5.00
2018-11-22T17:14:10.501Z,5.00
2018-11-22T17:16:17.022Z,5.00
2018-11-22T17:18:20.803Z,4.90
2018-11-22T17:20:26.231Z,4.90
2018-11-22T17:22:31.056Z,4.80
2018-11-22T17:24:36.061Z,4.80
2018-11-22T17:26:40.864Z,4.80
2018-11-22T17:28:52.058Z,4.80
2018-11-22T17:30:56.876Z,4.80
2018-11-22T17:33:01.689Z,4.90
2018-11-22T17:35:07.435Z,5.00
2018-11-22T17:37:12.743Z,5.00
2018-11-22T17:39:17.564Z,5.00
2018-11-22T17:41:22.302Z,5.00
2018-11-22T17:43:27.121Z,4.90
2018-11-22T17:45:34.203Z,4.90
2018-11-22T17:47:39.055Z,4.90
2018-11-22T17:49:43.985Z,4.90
2018-11-22T17:51:48.819Z,4.90
2018-11-22T17:53:59.191Z,4.90
2018-11-22T17:56:04.062Z,4.90
2018-11-22T17:58:09.011Z,4.80
2018-11-22T18:00:21.940Z,4.80
2018-11-22T18:02:26.781Z,4.80
2018-11-22T18:04:31.753Z,4.80
2018-11-22T18:06:36.705Z,4.80
2018-11-22T18:08:41.544Z,4.80
2018-11-22T18:10:46.372Z,4.80
2018-11-22T18:12:52.076Z,4.90
2018-11-22T18:14:56.883Z,4.90
2018-11-22T18:17:01.958Z,4.90
2018-11-22T18:19:06.800Z,4.80
2018-11-22T18:21:11.617Z,4.80
2018-11-22T18:23:16.586Z,4.70
2018-11-22T18:25:23.712Z,4.70
2018-11-22T18:27:29.505Z,4.70
2018-11-22T18:29:40.106Z,4.70
2018-11-22T18:31:48.886Z,4.70
2018-11-22T18:33:54.046Z,4.70
2018-11-22T18:35:59.225Z,4.60
2018-11-22T18:38:05.091Z,4.60
2018-11-22T18:40:15.386Z,4.70
2018-11-22T18:42:21.129Z,4.70
2018-11-22T18:44:26.182Z,4.70
2018-11-22T18:46:30.941Z,4.70
2018-11-22T18:48:35.913Z,4.60
2018-11-22T18:50:41.536Z,4.60
2018-11-22T18:52:46.781Z,4.60
2018-11-22T18:54:51.719Z,4.60
2018-11-22T18:56:57.634Z,4.50
2018-11-22T18:59:02.565Z,4.50
2018-11-22T19:01:08.291Z,4.40
2018-11-22T19:03:16.724Z,4.40
2018-11-22T19:05:21.723Z,4.30
2018-11-22T19:07:27.088Z,4.30
2018-11-22T19:09:32.397Z,4.40
2018-11-22T19:11:37.909Z,4.30
2018-11-22T19:13:42.912Z,4.30
2018-11-22T19:15:48.570Z,4.30
2018-11-22T19:17:53.750Z,4.20
2018-11-22T19:19:59.400Z,4.20
2018-11-22T19:22:16.354Z,4.10
2018-11-22T19:24:21.465Z,4.10
2018-11-22T19:26:26.362Z,4.10
2018-11-22T19:28:31.366Z,4.10
2018-11-22T19:30:39.042Z,4.20
2018-11-22T19:32:45.281Z,4.20
2018-11-22T19:34:50.426Z,4.20
2018-11-22T19:36:55.293Z,4.20
2018-11-22T19:39:00.536Z,4.20
2018-11-22T19:41:06.093Z,4.20
2018-11-22T19:43:11.822Z,4.20
2018-11-22T19:45:17.972Z,4.20
2018-11-22T19:47:23.664Z,4.20
2018-11-22T19:49:28.576Z,4.10
2018-11-22T19:51:33.668Z,4.10
2018-11-22T19:53:38.913Z,4.00
2018-11-22T19:55:43.894Z,4.00
2018-11-22T19:57:50.692Z,4.00
2018-11-22T19:59:56.958Z,4.00
2018-11-22T20:02:01.779Z,4.00
2018-11-22T20:04:06.755Z,4.00
2018-11-22T20:06:11.599Z,4.00
2018-11-22T20:08:19.118Z,4.00
2018-11-22T20:10:25.904Z,4.00
2018-11-22T20:12:31.003Z,4.00
2018-11-22T20:14:35.924Z,4.00
2018-11-22T20:16:45.596Z,4.10
2018-11-22T20:18:50.925Z,4.10
2018-11-22T20:20:55.950Z,4.10
2018-11-22T20:23:01.271Z,4.00
2018-11-22T20:25:07.309Z,3.90
2018-11-22T20:27:12.559Z,3.80
2018-11-22T20:29:22.540Z,3.80
2018-11-22T20:31:37.447Z,3.80
2018-11-22T20:33:42.648Z,3.80
2018-11-22T20:35:48.074Z,3.80
2018-11-22T20:37:53.691Z,3.70
2018-11-22T20:40:00.000Z,3.70
2018-11-22T20:42:06.316Z,3.80
2018-11-22T20:44:23.322Z,3.70
2018-11-22T20:46:28.406Z,3.70
2018-11-22T20:48:33.434Z,3.80
2018-11-22T20:50:39.431Z,3.70
2018-11-22T20:52:44.566Z,3.70
2018-11-22T20:54:51.811Z,3.70
2018-11-22T20:57:22.944Z,3.60
2018-11-22T20:59:28.053Z,3.60
2018-11-22T21:01:40.120Z,3.60
2018-11-22T21:03:50.323Z,3.60
2018-11-22T21:05:55.399Z,3.60
2018-11-22T21:08:00.809Z,3.60
2018-11-22T21:10:11.170Z,3.60
2018-11-22T21:12:17.649Z,3.50
2018-11-22T21:14:27.427Z,3.50
2018-11-22T21:16:43.881Z,3.50
2018-11-22T21:18:48.950Z,3.40
2018-11-22T21:20:54.025Z,3.40
2018-11-22T21:22:59.742Z,3.40
2018-11-22T21:25:05.397Z,3.40
2018-11-22T21:27:10.690Z,3.40
2018-11-22T21:29:19.227Z,3.40
2018-11-22T21:31:24.948Z,3.40
2018-11-22T21:33:29.964Z,3.40
2018-11-22T21:35:36.251Z,3.50
2018-11-22T21:37:41.350Z,3.40
2018-11-22T21:39:47.406Z,3.40
2018-11-22T21:41:53.220Z,3.40
2018-11-22T21:43:58.597Z,3.40
2018-11-22T21:46:03.945Z,3.40
2018-11-22T21:48:10.378Z,3.50
2018-11-22T21:50:17.030Z,3.50
2018-11-22T21:52:22.080Z,3.50
2018-11-22T21:54:27.297Z,3.40
2018-11-22T21:56:32.647Z,3.40
2018-11-22T21:58:40.599Z,3.30
2018-11-22T22:00:45.846Z,3.30
2018-11-22T22:02:53.609Z,3.30
2018-11-22T22:05:00.994Z,3.30
2018-11-22T22:07:08.246Z,3.30
2018-11-22T22:09:13.730Z,3.30
2018-11-22T22:11:18.706Z,3.30
2018-11-22T22:13:24.304Z,3.20
2018-11-22T22:15:30.670Z,3.30
2018-11-22T22:17:36.653Z,3.30
2018-11-22T22:19:42.245Z,3.30
2018-11-22T22:21:48.487Z,3.20
2018-11-22T22:23:53.712Z,3.20
2018-11-22T22:25:58.963Z,3.20
2018-11-22T22:28:06.680Z,3.30
2018-11-22T22:30:19.149Z,3.20
2018-11-22T22:32:25.236Z,3.20
2018-11-22T22:34:30.208Z,3.30
2018-11-22T22:37:06.626Z,3.30
2018-11-22T22:39:12.814Z,3.20
2018-11-22T22:41:20.177Z,3.20
2018-11-22T22:43:27.533Z,3.30
2018-11-22T22:45:34.808Z,3.30
2018-11-22T22:47:42.509Z,3.30
2018-11-22T22:49:47.552Z,3.20
2018-11-22T22:51:52.914Z,3.20
2018-11-22T22:56:13.862Z,3.20
2018-11-22T22:58:19.075Z,3.10
2018-11-22T23:00:30.540Z,3.10
2018-11-22T23:02:43.084Z,2.90
2018-11-22T23:05:13.643Z,2.90
2018-11-22T23:07:44.995Z,2.90
2018-11-22T23:09:57.615Z,3.00
2018-11-22T23:12:02.372Z,3.00
2018-11-22T23:14:09.910Z,3.00
2018-11-22T23:16:17.243Z,3.00
2018-11-22T23:18:24.574Z,3.00
2018-11-22T23:20:34.327Z,3.00
2018-11-22T23:22:39.645Z,2.90
2018-11-22T23:24:44.437Z,2.80
2018-11-22T23:26:49.256Z,2.90
2018-11-22T23:28:53.987Z,2.90
2018-11-22T23:30:58.836Z,2.80
2018-11-22T23:33:04.963Z,2.80
2018-11-22T23:35:10.195Z,2.80
2018-11-22T23:37:15.031Z,2.80
2018-11-22T23:39:20.013Z,2.70
2018-11-22T23:41:24.962Z,2.70
2018-11-22T23:43:30.363Z,2.70
2018-11-22T23:45:35.431Z,2.60
2018-11-22T23:47:40.960Z,2.70
2018-11-22T23:49:45.706Z,2.70
2018-11-22T23:51:50.621Z,2.60
2018-11-22T23:53:55.509Z,2.60
2018-11-22T23:56:00.774Z,2.60
2018-11-22T23:58:05.989Z,2.60
